Time;durP1;ratioP1;P1;durP2;ratioP2;P2;SDS_P1;SDS_P2;PMS_P1;PMS_P2;Temp;Humidity;BMP_temperature;BMP_pressure;BME280_temperature;BME280_humidity;BME280_pressure;Samples;Min_cycle;Max_cycle;Signal;HPM_P1;HPM_P2
2023/03/20 00:00:15;;;;;;;19.13;14.80;;;12.20;99.90;;;;;;4992819;28;20644;-73
2023/03/20 00:02:41;;;;;;;19.15;14.32;;;12.20;99.90;;;;;;5022124;28;20627;-74
2023/03/20 00:05:20;;;;;;;16.95;13.95;;;12.20;99.90;;;;;;5033115;28;20622;-74
2023/03/20 00:07:48;;;;;;;16.65;14.25;;;12.20;99.90;;;;;;5034858;28;20525;-74
2023/03/20 00:10:15;;;;;;;16.85;12.98;;;12.20;99.90;;;;;;5033185;28;20177;-74
2023/03/20 00:12:42;;;;;;;17.55;12.80;;;12.20;99.90;;;;;;5033275;28;20259;-74
2023/03/20 00:15:31;;;;;;;16.90;14.05;;;12.20;99.90;;;;;;5000340;28;20548;-74
2023/03/20 00:17:57;;;;;;;16.25;12.90;;;12.10;99.90;;;;;;5016775;28;20201;-74
2023/03/20 00:20:24;;;;;;;15.65;13.15;;;12.10;99.90;;;;;;5034275;28;20193;-74
2023/03/20 00:22:50;;;;;;;16.00;12.63;;;12.10;99.90;;;;;;5033374;28;20208;-73
2023/03/20 00:25:19;;;;;;;16.10;13.20;;;12.10;99.90;;;;;;5033287;28;20247;-73
2023/03/20 00:27:45;;;;;;;14.80;11.43;;;12.10;99.90;;;;;;5032818;28;20264;-73
2023/03/20 00:30:29;;;;;;;13.93;11.25;;;12.10;99.90;;;;;;5033127;28;20181;-74
2023/03/20 00:32:57;;;;;;;15.90;12.48;;;12.10;99.90;;;;;;5016115;28;20213;-73
2023/03/20 00:35:26;;;;;;;16.13;12.68;;;12.10;99.90;;;;;;5016730;28;20721;-73
2023/03/20 00:37:53;;;;;;;18.95;14.10;;;12.10;99.90;;;;;;5016229;28;20260;-74
2023/03/20 00:40:20;;;;;;;18.40;15.07;;;12.10;99.90;;;;;;4997133;28;20171;-74
2023/03/20 00:42:50;;;;;;;16.23;13.27;;;12.10;99.90;;;;;;5012862;28;20318;-73
2023/03/20 00:45:19;;;;;;;18.17;14.50;;;12.10;99.90;;;;;;4996888;28;20182;-74
2023/03/20 00:47:47;;;;;;;16.25;14.40;;;12.10;99.90;;;;;;5012627;28;20183;-74
2023/03/20 00:50:28;;;;;;;22.90;15.32;;;12.10;99.90;;;;;;5013081;28;20244;-73
2023/03/20 00:52:54;;;;;;;19.58;14.95;;;12.10;99.90;;;;;;5016181;28;20205;-74
2023/03/20 00:55:22;;;;;;;17.58;14.70;;;12.00;99.90;;;;;;5033724;28;20266;-74
2023/03/20 00:57:59;;;;;;;17.08;14.57;;;12.00;99.90;;;;;;5016154;28;20169;-73
2023/03/20 01:00:25;;;;;;;19.10;15.25;;;12.00;99.90;;;;;;5032853;28;20173;-73
2023/03/20 01:02:53;;;;;;;20.60;16.50;;;12.00;99.90;;;;;;5015962;28;20764;-73
2023/03/20 01:05:19;;;;;;;18.63;14.25;;;12.00;99.90;;;;;;5033483;28;20201;-73
2023/03/20 01:07:45;;;;;;;18.80;14.90;;;12.00;99.90;;;;;;5032558;28;20274;-74
2023/03/20 01:10:12;;;;;;;18.63;14.87;;;12.00;99.90;;;;;;5032280;28;20213;-74
2023/03/20 01:12:40;;;;;;;21.52;15.60;;;12.00;99.90;;;;;;5015531;28;20551;-74
2023/03/20 01:15:20;;;;;;;18.20;14.55;;;12.00;99.90;;;;;;5032487;28;20174;-74
2023/03/20 01:17:46;;;;;;;18.00;15.75;;;12.00;99.90;;;;;;5032314;28;20173;-74
2023/03/20 01:20:18;;;;;;;17.30;15.47;;;12.00;99.90;;;;;;5032731;28;20181;-74
2023/03/20 01:22:44;;;;;;;16.45;14.75;;;12.00;99.90;;;;;;5032394;28;20616;-74
2023/03/20 01:25:10;;;;;;;19.25;15.85;;;12.00;99.90;;;;;;5031457;28;20546;-73
2023/03/20 01:27:36;;;;;;;17.05;13.65;;;12.00;99.90;;;;;;5033596;28;20170;-74
2023/03/20 01:30:03;;;;;;;17.92;14.15;;;12.00;99.90;;;;;;5031728;28;20174;-74
2023/03/20 01:32:29;;;;;;;19.67;15.02;;;12.00;99.90;;;;;;5015260;28;20224;-74
2023/03/20 01:34:54;;;;;;;19.93;15.63;;;12.00;99.90;;;;;;5033462;28;20166;-74
2023/03/20 01:37:25;;;;;;;18.43;14.07;;;12.00;99.90;;;;;;5015285;28;20626;-74
2023/03/20 01:39:52;;;;;;;14.57;13.07;;;11.90;99.90;;;;;;5015269;28;20235;-73
2023/03/20 01:42:18;;;;;;;16.60;14.02;;;11.90;99.90;;;;;;5014916;28;20665;-74
2023/03/20 01:44:45;;;;;;;17.70;14.33;;;11.90;99.90;;;;;;5032105;28;20181;-74
2023/03/20 01:47:17;;;;;;;14.43;11.98;;;11.90;99.90;;;;;;5032419;28;20638;-74
2023/03/20 01:50:18;;;;;;;14.70;12.68;;;11.90;99.90;;;;;;5014982;28;20559;-74
2023/03/20 01:52:47;;;;;;;12.90;11.55;;;11.90;99.90;;;;;;5030998;28;20205;-73
2023/03/20 01:55:14;;;;;;;14.32;11.75;;;11.90;99.90;;;;;;5031842;28;20181;-73
2023/03/20 01:57:42;;;;;;;14.23;11.75;;;11.90;99.90;;;;;;4998570;28;20172;-75
2023/03/20 02:00:15;;;;;;;19.23;13.15;;;11.90;99.90;;;;;;4998576;28;20200;-73
2023/03/20 02:02:46;;;;;;;16.27;11.93;;;11.90;99.90;;;;;;5031051;28;20212;-74
2023/03/20 02:05:30;;;;;;;14.38;10.85;;;11.90;99.90;;;;;;5031463;28;20598;-74
2023/03/20 02:08:10;;;;;;;15.35;11.77;;;11.90;99.90;;;;;;5014282;28;20177;-74
2023/03/20 02:10:37;;;;;;;15.98;12.00;;;11.90;99.90;;;;;;5009495;28;20544;-74
2023/03/20 02:13:19;;;;;;;14.52;12.38;;;11.90;99.90;;;;;;5009768;28;20211;-74
2023/03/20 02:16:01;;;;;;;15.23;11.30;;;11.90;99.90;;;;;;5030877;28;20193;-74
2023/03/20 02:18:50;;;;;;;16.13;11.98;;;11.80;99.90;;;;;;5011788;28;20179;-74
2023/03/20 02:21:50;;;;;;;14.57;12.48;;;11.80;99.90;;;;;;5028325;28;20581;-74
2023/03/20 02:24:43;;;;;;;14.93;11.60;;;11.80;99.90;;;;;;5030749;28;20557;-74
2023/03/20 02:27:31;;;;;;;13.20;11.18;;;11.80;99.90;;;;;;5013147;28;20177;-73
2023/03/20 02:30:06;;;;;;;13.40;11.50;;;11.80;99.90;;;;;;5030125;28;20583;-73
2023/03/20 02:32:37;;;;;;;15.02;13.05;;;11.80;99.90;;;;;;5030776;28;20201;-73
2023/03/20 02:35:12;;;;;;;16.63;12.63;;;11.80;99.90;;;;;;5030456;28;20177;-74
2023/03/20 02:37:53;;;;;;;16.02;12.48;;;11.80;99.90;;;;;;5030826;28;20215;-73
2023/03/20 02:40:27;;;;;;;13.82;11.60;;;11.80;99.90;;;;;;5013880;28;20170;-74
2023/03/20 02:43:26;;;;;;;14.95;11.98;;;11.80;99.90;;;;;;5031752;28;20244;-74
2023/03/20 02:46:29;;;;;;;14.05;11.38;;;11.80;99.90;;;;;;5029671;28;20177;-74
2023/03/20 02:49:12;;;;;;;15.43;11.82;;;11.80;99.90;;;;;;5108756;27;20687;-74
2023/03/20 02:52:08;;;;;;;14.23;11.30;;;11.80;99.90;;;;;;5090156;28;20292;-72
2023/03/20 02:54:45;;;;;;;16.35;13.40;;;11.80;99.90;;;;;;5107698;28;20167;-72
2023/03/20 02:57:31;;;;;;;15.15;11.43;;;11.80;99.90;;;;;;5090174;28;20212;-72
2023/03/20 03:00:09;;;;;;;15.05;11.77;;;11.70;99.90;;;;;;5107176;28;20269;-72
2023/03/20 03:02:45;;;;;;;12.35;9.88;;;11.60;99.90;;;;;;5106883;28;20269;-73
2023/03/20 03:05:20;;;;;;;12.32;10.10;;;11.60;99.90;;;;;;5107124;28;20179;-72
2023/03/20 03:07:50;;;;;;;15.35;11.73;;;11.50;99.90;;;;;;5106997;28;20209;-73
2023/03/20 03:10:36;;;;;;;14.45;12.20;;;11.40;99.90;;;;;;5107055;28;20175;-73
2023/03/20 03:13:05;;;;;;;14.10;10.82;;;11.40;99.90;;;;;;5106334;28;20232;-73
2023/03/20 03:15:38;;;;;;;16.25;11.50;;;11.30;99.90;;;;;;5090220;28;20167;-73
2023/03/20 03:18:08;;;;;;;14.27;11.35;;;11.30;99.90;;;;;;5106715;28;20562;-74
2023/03/20 03:20:38;;;;;;;16.70;12.15;;;11.30;99.90;;;;;;5093413;28;20172;-73
2023/03/20 03:23:05;;;;;;;14.50;10.70;;;11.30;99.90;;;;;;5093976;28;20194;-72
2023/03/20 03:25:39;;;;;;;12.23;10.70;;;11.30;99.90;;;;;;5093083;28;20178;-73
2023/03/20 03:28:18;;;;;;;12.15;10.15;;;11.40;99.90;;;;;;5089275;28;20233;-73
2023/03/20 03:30:45;;;;;;;15.38;11.80;;;11.40;99.90;;;;;;5107152;28;20193;-73
2023/03/20 03:33:18;;;;;;;16.70;11.30;;;11.40;99.90;;;;;;5089483;28;20204;-72
2023/03/20 03:35:46;;;;;;;14.45;11.70;;;11.50;99.90;;;;;;5089602;28;20182;-72
2023/03/20 03:38:39;;;;;;;15.52;11.43;;;11.50;99.90;;;;;;5089569;28;20167;-72
2023/03/20 03:41:28;;;;;;;15.25;11.43;;;11.50;99.90;;;;;;5072518;28;20521;-74
2023/03/20 03:44:08;;;;;;;13.35;9.57;;;11.50;99.90;;;;;;5106638;28;20715;-72
2023/03/20 03:47:01;;;;;;;15.05;11.85;;;11.50;99.90;;;;;;5106178;28;20178;-72
2023/03/20 03:49:32;;;;;;;12.90;10.88;;;11.40;99.90;;;;;;5088991;28;20174;-74
2023/03/20 03:52:07;;;;;;;16.20;13.23;;;11.40;99.90;;;;;;5072428;28;20191;-73
2023/03/20 03:54:43;;;;;;;21.60;13.30;;;11.40;99.90;;;;;;5106536;28;20626;-73
2023/03/20 03:57:45;;;;;;;14.48;10.85;;;11.30;99.90;;;;;;5107533;28;20585;-72
2023/03/20 04:00:19;;;;;;;12.98;11.15;;;11.30;99.90;;;;;;5076470;28;20179;-72
2023/03/20 04:02:49;;;;;;;14.50;12.40;;;11.30;99.90;;;;;;5059031;28;20231;-73
2023/03/20 04:05:17;;;;;;;19.30;13.50;;;11.30;99.90;;;;;;5092701;28;20655;-74
2023/03/20 04:07:45;;;;;;;17.08;12.27;;;11.30;99.90;;;;;;5092312;28;20200;-73
2023/03/20 04:10:11;;;;;;;15.40;11.50;;;11.30;99.90;;;;;;5075225;28;20190;-73
2023/03/20 04:12:41;;;;;;;16.00;12.25;;;11.30;99.90;;;;;;5091671;28;20623;-73
2023/03/20 04:15:11;;;;;;;17.52;13.43;;;11.40;99.90;;;;;;5075528;28;20214;-73
2023/03/20 04:17:38;;;;;;;15.60;11.80;;;11.40;99.90;;;;;;5100356;28;20217;-73
2023/03/20 04:20:05;;;;;;;17.52;13.73;;;11.40;99.90;;;;;;5078448;28;20414;-73
2023/03/20 04:22:33;;;;;;;17.38;11.32;;;11.40;99.90;;;;;;5091319;28;20191;-73
2023/03/20 04:25:06;;;;;;;12.07;10.23;;;11.40;99.90;;;;;;5075148;28;20168;-74
2023/03/20 04:27:31;;;;;;;14.63;10.65;;;11.40;99.90;;;;;;5093129;28;20264;-73
2023/03/20 04:29:58;;;;;;;11.23;9.13;;;11.40;99.90;;;;;;5058579;28;20163;-73
2023/03/20 04:32:46;;;;;;;14.48;10.15;;;11.40;99.90;;;;;;5092871;28;20278;-73
2023/03/20 04:35:17;;;;;;;15.10;10.00;;;11.30;99.90;;;;;;5076030;28;20172;-73
2023/03/20 04:37:51;;;;;;;15.93;9.77;;;11.30;99.90;;;;;;5091653;28;20178;-74
2023/03/20 04:40:18;;;;;;;15.38;9.90;;;11.20;99.90;;;;;;5092112;28;20184;-73
2023/03/20 04:42:45;;;;;;;13.77;9.68;;;11.20;99.90;;;;;;5075064;28;20226;-73
2023/03/20 04:45:10;;;;;;;10.77;8.20;;;11.20;99.90;;;;;;5074346;28;20206;-73
2023/03/20 04:47:38;;;;;;;11.52;8.52;;;11.10;99.90;;;;;;5091913;28;20204;-74
2023/03/20 04:50:05;;;;;;;10.10;9.05;;;11.10;99.90;;;;;;5091058;28;20182;-73
2023/03/20 04:52:31;;;;;;;13.23;9.27;;;11.00;99.90;;;;;;5074925;28;20203;-73
2023/03/20 04:54:56;;;;;;;13.30;9.40;;;11.00;99.90;;;;;;5074451;28;20171;-73
2023/03/20 04:57:23;;;;;;;11.30;8.70;;;10.90;99.90;;;;;;5092842;28;20203;-73
2023/03/20 04:59:50;;;;;;;10.70;7.00;;;10.90;99.90;;;;;;5090897;28;20171;-73
2023/03/20 05:02:16;;;;;;;11.07;7.35;;;10.90;99.90;;;;;;5074469;28;20234;-73
2023/03/20 05:04:42;;;;;;;10.27;7.75;;;10.80;99.90;;;;;;5091032;28;20240;-73
2023/03/20 05:07:09;;;;;;;10.43;7.60;;;10.80;99.90;;;;;;5091469;28;20218;-73
2023/03/20 05:09:47;;;;;;;13.80;9.07;;;10.80;99.90;;;;;;5075746;28;20183;-73
2023/03/20 05:12:13;;;;;;;10.85;7.80;;;10.70;99.90;;;;;;5072830;28;20741;-73
2023/03/20 05:14:45;;;;;;;12.18;8.02;;;10.70;99.90;;;;;;5102904;28;20209;-73
2023/03/20 05:17:37;;;;;;;11.23;7.95;;;10.70;99.90;;;;;;5105063;28;20834;-73
2023/03/20 05:20:35;;;;;;;10.55;6.95;;;10.70;99.90;;;;;;5081572;28;20287;-73
2023/03/20 05:23:06;;;;;;;10.77;8.15;;;10.60;99.90;;;;;;5091055;28;20594;-73
2023/03/20 05:25:58;;;;;;;8.90;7.55;;;10.60;99.90;;;;;;5074752;28;20592;-73
2023/03/20 05:28:35;;;;;;;10.27;7.72;;;10.60;99.90;;;;;;5090791;28;20576;-73
2023/03/20 05:31:15;;;;;;;12.73;8.93;;;10.60;99.90;;;;;;5058883;28;20167;-72
2023/03/20 05:34:01;;;;;;;10.68;7.70;;;10.50;99.90;;;;;;5059978;28;20179;-72
2023/03/20 05:36:42;;;;;;;8.80;7.20;;;10.50;99.90;;;;;;5090644;28;20678;-73
2023/03/20 05:39:24;;;;;;;9.70;7.00;;;10.50;99.90;;;;;;5073553;28;20643;-73
2023/03/20 05:42:08;;;;;;;9.65;6.57;;;10.40;99.90;;;;;;5075941;28;20195;-72
2023/03/20 05:44:53;;;;;;;9.35;6.53;;;10.40;99.90;;;;;;5074032;28;20177;-73
2023/03/20 05:47:37;;;;;;;10.80;8.07;;;10.40;99.90;;;;;;5090198;28;20235;-73
2023/03/20 05:50:28;;;;;;;9.35;6.60;;;10.40;99.90;;;;;;5090858;28;20266;-73
2023/03/20 05:53:12;;;;;;;9.05;6.35;;;10.30;99.90;;;;;;5075709;28;20187;-73
2023/03/20 05:56:11;;;;;;;7.68;6.32;;;10.30;99.90;;;;;;5067800;28;20179;-73
2023/03/20 05:58:39;;;;;;;11.20;5.95;;;10.30;99.90;;;;;;5089897;28;20651;-73
2023/03/20 06:01:34;;;;;;;11.55;6.82;;;10.30;99.90;;;;;;5090255;28;20540;-73
2023/03/20 06:04:22;;;;;;;9.45;6.70;;;10.40;99.90;;;;;;5089675;28;20182;-73
2023/03/20 06:07:13;;;;;;;9.45;6.88;;;10.40;99.90;;;;;;5090404;28;20621;-73
2023/03/20 06:10:02;;;;;;;8.95;6.35;;;10.40;99.90;;;;;;5080643;28;20594;-73
2023/03/20 06:12:29;;;;;;;12.85;6.57;;;10.40;99.90;;;;;;5089170;28;20190;-73
2023/03/20 06:14:54;;;;;;;10.75;7.00;;;10.40;99.90;;;;;;5110078;28;20169;-73
2023/03/20 06:17:21;;;;;;;13.00;7.45;;;10.40;99.90;;;;;;5076552;28;20280;-73
2023/03/20 06:19:51;;;;;;;9.95;7.40;;;10.50;99.90;;;;;;5105162;28;20547;-73
2023/03/20 06:22:17;;;;;;;13.23;8.43;;;10.50;99.90;;;;;;5072558;28;20192;-73
2023/03/20 06:24:42;;;;;;;12.50;9.00;;;10.50;99.90;;;;;;5072779;28;20176;-73
2023/03/20 06:27:10;;;;;;;11.48;8.73;;;10.60;99.90;;;;;;5072929;28;20203;-73
2023/03/20 06:29:36;;;;;;;11.35;8.50;;;10.60;99.90;;;;;;5089964;28;20164;-73
2023/03/20 06:32:13;;;;;;;15.10;9.15;;;10.60;99.90;;;;;;5089522;28;20199;-74
2023/03/20 06:34:40;;;;;;;13.90;9.68;;;10.70;99.90;;;;;;5073055;28;20256;-73
2023/03/20 06:37:06;;;;;;;13.80;9.15;;;10.80;99.90;;;;;;5072532;28;20209;-74
2023/03/20 06:39:32;;;;;;;12.70;9.38;;;10.90;99.90;;;;;;5089890;28;20638;-73
2023/03/20 06:41:58;;;;;;;11.83;10.17;;;11.00;99.90;;;;;;5089211;28;20234;-73
2023/03/20 06:44:25;;;;;;;14.30;10.13;;;11.00;99.90;;;;;;5072561;28;21164;-73
2023/03/20 06:47:14;;;;;;;12.38;9.35;;;11.10;99.90;;;;;;5089148;28;20567;-73
2023/03/20 06:49:40;;;;;;;14.75;10.00;;;11.20;99.90;;;;;;5055950;28;20278;-73
2023/03/20 06:52:12;;;;;;;10.68;9.13;;;11.30;99.90;;;;;;5089275;28;20184;-74
2023/03/20 06:54:38;;;;;;;13.07;9.30;;;11.40;99.90;;;;;;5089908;28;20175;-73
2023/03/20 06:57:04;;;;;;;14.40;10.63;;;11.50;99.90;;;;;;5089797;28;20179;-74
2023/03/20 06:59:30;;;;;;;13.43;9.53;;;11.50;99.90;;;;;;5072635;28;20264;-73
2023/03/20 07:01:57;;;;;;;11.85;9.80;;;11.60;99.90;;;;;;5055052;28;20197;-74
2023/03/20 07:04:23;;;;;;;12.30;10.13;;;11.70;99.90;;;;;;5088498;28;20184;-74
2023/03/20 07:06:52;;;;;;;10.07;8.20;;;11.70;99.90;;;;;;5079706;28;20194;-74
2023/03/20 07:09:18;;;;;;;11.23;9.23;;;11.80;99.90;;;;;;5109413;28;20551;-74
2023/03/20 07:11:44;;;;;;;12.80;9.10;;;11.90;99.90;;;;;;5109507;28;20611;-73
2023/03/20 07:14:10;;;;;;;11.80;9.60;;;12.00;99.90;;;;;;5102034;28;20639;-74
2023/03/20 07:16:46;;;;;;;11.15;8.10;;;12.10;99.90;;;;;;5072806;28;20171;-74
2023/03/20 07:19:12;;;;;;;10.83;7.90;;;12.30;99.90;;;;;;5088780;28;20594;-73
2023/03/20 07:21:41;;;;;;;10.77;8.23;;;12.40;99.90;;;;;;5089151;28;20249;-73
2023/03/20 07:24:07;;;;;;;10.00;7.83;;;12.50;99.90;;;;;;5089526;28;20164;-74
2023/03/20 07:26:32;;;;;;;9.13;7.77;;;12.70;99.90;;;;;;5089302;28;20578;-74
2023/03/20 07:28:59;;;;;;;8.23;7.20;;;12.80;99.90;;;;;;5072263;28;20294;-74
2023/03/20 07:31:28;;;;;;;9.15;6.90;;;12.90;99.90;;;;;;5088868;28;20586;-74
2023/03/20 07:34:13;;;;;;;9.88;6.22;;;12.90;99.90;;;;;;5076416;28;20619;-73
2023/03/20 07:36:40;;;;;;;7.97;6.13;;;12.90;99.90;;;;;;5075897;28;20283;-74
2023/03/20 07:39:08;;;;;;;12.88;7.45;;;13.00;99.90;;;;;;5075906;28;20180;-75
2023/03/20 07:41:36;;;;;;;9.23;6.20;;;13.00;99.90;;;;;;5075604;28;20199;-74
2023/03/20 07:44:07;;;;;;;8.52;6.25;;;13.00;99.90;;;;;;5060192;28;20175;-74
2023/03/20 07:46:51;;;;;;;8.18;6.35;;;13.00;99.90;;;;;;5075729;28;20252;-74
2023/03/20 07:49:18;;;;;;;7.38;5.97;;;13.00;99.90;;;;;;5092709;28;20206;-74
2023/03/20 07:51:49;;;;;;;6.53;5.67;;;12.90;99.90;;;;;;5092476;28;20195;-74
2023/03/20 07:54:15;;;;;;;8.35;6.50;;;12.90;99.90;;;;;;5092818;28;20605;-74
2023/03/20 07:56:42;;;;;;;7.80;5.97;;;12.90;99.90;;;;;;5075924;28;20172;-74
2023/03/20 07:59:08;;;;;;;7.93;4.97;;;12.90;99.90;;;;;;5058479;28;20578;-74
2023/03/20 08:01:34;;;;;;;8.03;5.57;;;12.80;99.90;;;;;;5093745;28;20184;-74
2023/03/20 08:04:00;;;;;;;7.20;5.40;;;12.80;99.90;;;;;;5105078;28;20587;-75
2023/03/20 08:06:25;;;;;;;6.07;4.73;;;12.80;99.90;;;;;;5113611;28;20216;-79
2023/03/20 08:08:51;;;;;;;8.40;5.03;;;12.80;99.90;;;;;;5095353;28;20543;-80
2023/03/20 08:11:18;;;;;;;5.50;4.60;;;12.90;99.90;;;;;;5112883;28;20171;-79
2023/03/20 08:13:45;;;;;;;7.68;5.20;;;12.90;99.90;;;;;;5095712;28;20187;-80
2023/03/20 08:16:10;;;;;;;5.50;3.65;;;13.00;99.90;;;;;;5112885;28;20579;-80
2023/03/20 08:18:36;;;;;;;6.20;4.80;;;13.10;99.90;;;;;;5095763;28;20171;-80
2023/03/20 08:21:02;;;;;;;5.43;4.23;;;13.20;99.90;;;;;;5099477;28;21189;-81
2023/03/20 08:23:28;;;;;;;7.97;4.37;;;13.20;99.90;;;;;;5092788;28;20196;-81
2023/03/20 08:25:54;;;;;;;7.20;4.80;;;13.30;99.90;;;;;;5075255;28;20635;-80
2023/03/20 08:28:21;;;;;;;5.47;4.23;;;13.40;99.90;;;;;;5101107;28;20641;-82
2023/03/20 08:30:47;;;;;;;4.70;4.00;;;13.40;99.90;;;;;;5093492;28;20174;-80
2023/03/20 08:33:15;;;;;;;7.03;4.10;;;13.50;99.90;;;;;;5092702;28;20609;-81
2023/03/20 08:35:41;;;;;;;4.72;3.88;;;13.60;99.90;;;;;;5092687;28;20616;-80
2023/03/20 08:38:12;;;;;;;7.00;4.40;;;13.60;99.90;;;;;;5091815;28;20274;-80
2023/03/20 08:40:41;;;;;;;8.63;4.33;;;13.70;99.90;;;;;;5093164;28;20577;-81
2023/03/20 08:43:07;;;;;;;6.13;4.03;;;13.80;99.90;;;;;;5091749;28;20755;-80
2023/03/20 08:45:33;;;;;;;6.43;4.60;;;13.80;99.90;;;;;;5075415;28;20533;-81
2023/03/20 08:47:59;;;;;;;5.50;4.00;;;13.90;99.90;;;;;;5091269;28;20641;-82
2023/03/20 08:50:24;;;;;;;4.73;3.63;;;14.00;99.90;;;;;;5092205;28;20631;-81
2023/03/20 08:52:50;;;;;;;7.70;4.13;;;14.10;99.90;;;;;;5091520;28;20204;-81
2023/03/20 08:55:16;;;;;;;5.57;3.83;;;14.20;99.90;;;;;;5093405;28;20658;-80
2023/03/20 08:57:42;;;;;;;6.67;4.40;;;14.30;99.90;;;;;;5093080;28;20241;-80
2023/03/20 09:00:11;;;;;;;5.17;3.80;;;14.30;99.90;;;;;;5086413;28;21206;-81
2023/03/20 09:02:37;;;;;;;4.43;3.67;;;14.40;99.90;;;;;;5113486;28;20609;-81
2023/03/20 09:05:03;;;;;;;6.17;4.97;;;14.50;99.90;;;;;;5111751;28;20585;-81
2023/03/20 09:07:29;;;;;;;7.63;4.63;;;14.50;99.90;;;;;;5095199;28;20226;-80
2023/03/20 09:09:54;;;;;;;5.30;4.73;;;14.60;99.90;;;;;;5112799;28;20581;-80
2023/03/20 09:12:20;;;;;;;5.47;4.50;;;14.70;99.90;;;;;;5111536;28;20187;-80
2023/03/20 09:14:46;;;;;;;5.40;4.30;;;14.70;99.90;;;;;;5112660;28;20170;-81
2023/03/20 09:17:11;;;;;;;7.43;4.37;;;14.70;99.90;;;;;;5111832;28;21134;-80
2023/03/20 09:19:38;;;;;;;5.30;3.47;;;14.70;99.90;;;;;;5108888;28;20182;-81
2023/03/20 09:22:04;;;;;;;7.40;4.73;;;14.80;99.90;;;;;;5092891;28;20609;-81
2023/03/20 09:24:31;;;;;;;6.50;4.13;;;14.90;99.90;;;;;;5093888;28;20581;-80
2023/03/20 09:26:59;;;;;;;7.33;5.47;;;14.90;99.90;;;;;;5091601;28;21137;-83
2023/03/20 09:29:26;;;;;;;6.60;5.00;;;15.00;99.90;;;;;;5093062;28;20946;-82
2023/03/20 09:31:55;;;;;;;6.30;5.67;;;15.10;99.90;;;;;;5091104;28;20622;-82
2023/03/20 09:34:20;;;;;;;6.67;5.30;;;15.20;99.90;;;;;;5074873;28;20582;-83
2023/03/20 09:36:46;;;;;;;6.57;5.97;;;15.40;99.90;;;;;;5092205;28;20566;-82
2023/03/20 09:39:12;;;;;;;5.80;4.87;;;15.50;99.90;;;;;;5092843;28;20670;-79
2023/03/20 09:41:39;;;;;;;9.03;5.40;;;15.60;99.90;;;;;;5092398;28;20203;-80
2023/03/20 09:44:05;;;;;;;8.07;5.50;;;15.70;99.90;;;;;;5092322;28;20167;-80
2023/03/20 09:46:48;;;;;;;5.90;4.47;;;15.70;99.90;;;;;;5074581;28;20611;-81
2023/03/20 09:49:34;;;;;;;9.00;5.27;;;15.70;99.90;;;;;;5091412;28;20518;-82
2023/03/20 09:52:07;;;;;;;7.70;5.13;;;15.80;99.90;;;;;;5090372;28;20612;-82
2023/03/20 09:54:38;;;;;;;5.63;4.70;;;15.80;99.90;;;;;;5119694;28;20604;-80
2023/03/20 09:57:04;;;;;;;8.07;5.17;;;15.80;99.90;;;;;;5123955;28;20664;-80
2023/03/20 09:59:33;;;;;;;5.40;4.13;;;15.80;99.90;;;;;;5128135;28;20569;-81
2023/03/20 10:02:06;;;;;;;9.73;4.70;;;15.70;99.90;;;;;;5113349;28;20625;-80
2023/03/20 10:04:33;;;;;;;5.60;4.03;;;15.60;99.90;;;;;;5089402;28;20668;-83
2023/03/20 10:07:03;;;;;;;6.73;4.47;;;15.60;99.90;;;;;;5111218;28;20598;-82
2023/03/20 10:09:32;;;;;;;6.83;5.57;;;15.60;99.90;;;;;;5095624;28;20598;-82
2023/03/20 10:12:05;;;;;;;8.17;5.90;;;15.60;99.90;;;;;;5093890;28;20617;-81
2023/03/20 10:14:53;;;;;;;8.30;5.20;;;15.60;99.90;;;;;;5072518;28;20740;-81
2023/03/20 10:17:18;;;;;;;11.90;6.80;;;15.70;99.90;;;;;;5093831;28;20578;-81
2023/03/20 10:19:52;;;;;;;8.17;7.10;;;15.80;99.90;;;;;;5091722;28;21200;-79
2023/03/20 10:22:35;;;;;;;10.30;6.70;;;15.90;99.90;;;;;;5083669;28;20590;-81
2023/03/20 10:25:15;;;;;;;8.40;5.53;;;15.90;99.90;;;;;;5068219;28;20601;-80
2023/03/20 10:27:54;;;;;;;9.57;5.47;;;15.90;99.90;;;;;;5085401;28;20633;-80
2023/03/20 10:30:48;;;;;;;9.77;5.60;;;16.00;99.90;;;;;;5090829;28;21030;-81
2023/03/20 10:33:30;;;;;;;6.30;4.30;;;16.00;99.90;;;;;;5069643;28;20713;-80
2023/03/20 10:36:17;;;;;;;5.60;3.80;;;16.00;99.90;;;;;;5090305;28;20631;-81
2023/03/20 10:38:55;;;;;;;5.70;3.03;;;16.00;99.90;;;;;;5089098;28;20608;-81
2023/03/20 10:41:28;;;;;;;7.47;3.90;;;15.90;99.90;;;;;;5089503;28;21297;-78
2023/03/20 10:43:56;;;;;;;4.70;3.00;;;15.80;99.90;;;;;;5087495;28;20943;-81
2023/03/20 10:46:34;;;;;;;6.17;3.27;;;15.70;99.90;;;;;;5090146;28;20588;-82
2023/03/20 10:49:39;;;;;;;6.43;3.50;;;15.60;99.90;;;;;;5070422;28;20644;-82
2023/03/20 10:52:13;;;;;;;7.70;2.40;;;15.50;99.90;;;;;;5087350;28;20624;-79
2023/03/20 10:54:51;;;;;;;4.90;1.93;;;15.50;99.90;;;;;;5086400;28;20596;-80
2023/03/20 10:57:26;;;;;;;3.90;1.63;;;15.40;99.90;;;;;;5071193;28;20581;-80
2023/03/20 10:59:55;;;;;;;4.47;1.67;;;15.30;99.90;;;;;;5086139;28;20650;-80
2023/03/20 11:02:24;;;;;;;6.87;2.17;;;15.20;99.90;;;;;;5088420;28;20682;-81
2023/03/20 11:04:50;;;;;;;5.23;1.90;;;15.10;99.90;;;;;;5086241;28;20581;-81
2023/03/20 11:07:24;;;;;;;5.57;1.97;;;15.10;99.90;;;;;;5070084;28;20962;-80
2023/03/20 11:10:06;;;;;;;4.03;2.37;;;15.10;99.90;;;;;;5090986;28;20207;-82
2023/03/20 11:12:35;;;;;;;10.53;4.13;;;15.00;99.90;;;;;;5073592;28;20671;-82
2023/03/20 11:15:13;;;;;;;6.83;3.47;;;15.10;99.90;;;;;;5093484;28;20618;-82
2023/03/20 11:17:38;;;;;;;4.97;2.23;;;15.10;99.90;;;;;;5089190;28;20589;-80
2023/03/20 11:20:05;;;;;;;5.30;2.50;;;15.10;99.90;;;;;;5091447;28;21167;-82
2023/03/20 11:22:31;;;;;;;10.30;2.57;;;15.20;99.90;;;;;;5091983;28;20245;-82
2023/03/20 11:25:02;;;;;;;8.10;3.73;;;15.10;99.90;;;;;;5091932;28;21593;-82
2023/03/20 11:27:33;;;;;;;3.10;2.13;;;15.10;99.90;;;;;;5091704;28;20620;-82
2023/03/20 11:30:06;;;;;;;7.80;2.37;;;15.10;99.90;;;;;;5073338;28;20630;-82
2023/03/20 11:32:54;;;;;;;4.10;1.40;;;15.10;99.90;;;;;;5092605;28;20645;-81
2023/03/20 11:35:25;;;;;;;7.50;2.20;;;15.10;99.90;;;;;;5089825;28;20597;-82
2023/03/20 11:37:54;;;;;;;4.23;2.20;;;15.10;99.90;;;;;;5092759;28;20586;-82
2023/03/20 11:40:24;;;;;;;5.03;2.83;;;15.10;99.90;;;;;;5090518;28;20696;-81
2023/03/20 11:43:12;;;;;;;6.00;2.97;;;15.10;99.90;;;;;;5073617;28;20647;-80
2023/03/20 11:45:53;;;;;;;5.77;2.60;;;15.00;99.90;;;;;;5089574;28;20585;-79
2023/03/20 11:48:20;;;;;;;2.87;1.93;;;14.90;99.90;;;;;;5073043;28;20647;-81
2023/03/20 11:50:50;;;;;;;3.93;2.00;;;14.90;99.90;;;;;;5090607;28;20676;-79
2023/03/20 11:53:30;;;;;;;7.93;2.93;;;14.90;99.90;;;;;;5073952;28;20609;-79
2023/03/20 11:56:23;;;;;;;3.57;1.87;;;14.80;99.90;;;;;;5091864;28;20634;-79
2023/03/20 11:58:59;;;;;;;5.10;2.20;;;14.80;99.90;;;;;;5089627;28;20940;-80
2023/03/20 12:01:27;;;;;;;5.60;2.57;;;14.80;99.90;;;;;;5090623;28;20592;-80
2023/03/20 12:04:11;;;;;;;4.10;1.80;;;14.80;99.90;;;;;;5073327;28;20597;-80
2023/03/20 12:06:45;;;;;;;4.47;2.20;;;14.80;99.90;;;;;;5101778;28;20618;-81
2023/03/20 12:09:25;;;;;;;4.33;2.43;;;14.80;99.90;;;;;;5093381;28;20644;-81
2023/03/20 12:12:44;;;;;;;4.77;2.40;;;14.80;99.90;;;;;;5075640;28;20623;-80
2023/03/20 12:15:20;;;;;;;7.17;2.13;;;14.80;99.90;;;;;;5074136;28;20585;-79
2023/03/20 12:17:55;;;;;;;4.32;2.70;;;14.90;99.90;;;;;;5093527;28;21062;-80
2023/03/20 12:20:42;;;;;;;4.73;2.20;;;14.90;99.90;;;;;;5097851;28;20178;-80
2023/03/20 12:23:08;;;;;;;4.30;2.30;;;14.90;99.90;;;;;;5091341;28;20831;-82
2023/03/20 12:25:55;;;;;;;3.30;2.20;;;14.80;99.90;;;;;;5075576;28;20676;-86
2023/03/20 12:28:39;;;;;;;4.27;2.00;;;14.80;99.90;;;;;;5092581;28;20199;-82
2023/03/20 12:31:14;;;;;;;5.27;2.60;;;14.80;99.90;;;;;;5090345;28;20609;-82
2023/03/20 12:34:03;;;;;;;9.30;5.23;;;14.80;99.90;;;;;;5075496;28;20724;-82
2023/03/20 12:36:46;;;;;;;6.03;2.27;;;14.80;99.90;;;;;;5093057;28;20574;-82
2023/03/20 12:39:18;;;;;;;5.90;1.97;;;14.90;99.90;;;;;;5092437;28;20577;-82
2023/03/20 12:42:12;;;;;;;3.90;1.83;;;14.80;99.90;;;;;;5092944;28;21377;-82
2023/03/20 12:44:49;;;;;;;4.30;1.90;;;14.80;99.90;;;;;;5097876;28;20588;-84
2023/03/20 12:47:26;;;;;;;4.97;2.13;;;14.80;99.90;;;;;;5092891;28;21524;-82
2023/03/20 12:50:27;;;;;;;4.07;2.30;;;14.80;99.90;;;;;;5091922;28;20589;-82
2023/03/20 12:53:07;;;;;;;7.47;3.90;;;14.70;99.90;;;;;;5090588;28;20807;-82
2023/03/20 12:55:35;;;;;;;10.10;5.90;;;14.70;99.90;;;;;;5091903;28;20519;-82
2023/03/20 12:58:22;;;;;;;7.57;3.93;;;14.70;99.90;;;;;;5074725;28;21162;-82
2023/03/20 13:01:31;;;;;;;3.80;1.70;;;14.60;99.90;;;;;;5074758;28;20659;-82
2023/03/20 13:04:17;;;;;;;5.20;2.27;;;14.70;99.90;;;;;;5053043;28;21199;-81
2023/03/20 13:06:58;;;;;;;4.27;1.57;;;14.80;99.90;;;;;;5074264;28;20612;-82
2023/03/20 13:09:46;;;;;;;5.30;2.50;;;14.80;99.90;;;;;;5090651;28;20598;-81